sensor_id;sensor_type;location;lat;lon;timestamp;pressure;altitude;pressure_sealevel;temperature;humidity
12963;BME280;6546;49.882;8.666;2023-03-30T00:00:08;99514.59;;;14.18;52.39
12963;BME280;6546;49.882;8.666;2023-03-30T00:02:43;99515.38;;;14.18;52.19
12963;BME280;6546;49.882;8.666;2023-03-30T00:05:10;99510.00;;;14.20;52.26
12963;BME280;6546;49.882;8.666;2023-03-30T00:07:38;99512.59;;;14.20;52.10
12963;BME280;6546;49.882;8.666;2023-03-30T00:10:09;99517.63;;;14.22;52.46
12963;BME280;6546;49.882;8.666;2023-03-30T00:12:36;99518.78;;;14.19;52.46
12963;BME280;6546;49.882;8.666;2023-03-30T00:15:04;99511.19;;;14.24;52.77
12963;BME280;6546;49.882;8.666;2023-03-30T00:17:31;99506.19;;;14.23;52.40
12963;BME280;6546;49.882;8.666;2023-03-30T00:19:58;99508.19;;;14.27;52.60
12963;BME280;6546;49.882;8.666;2023-03-30T00:22:30;99511.00;;;14.32;52.69
12963;BME280;6546;49.882;8.666;2023-03-30T00:24:57;99506.81;;;14.31;52.83
12963;BME280;6546;49.882;8.666;2023-03-30T00:27:25;99506.81;;;14.31;52.93
12963;BME280;6546;49.882;8.666;2023-03-30T00:29:51;99502.38;;;14.25;52.93
12963;BME280;6546;49.882;8.666;2023-03-30T00:32:18;99497.56;;;14.22;53.08
12963;BME280;6546;49.882;8.666;2023-03-30T00:34:45;99506.97;;;14.16;53.32
12963;BME280;6546;49.882;8.666;2023-03-30T00:37:11;99507.19;;;14.22;53.73
12963;BME280;6546;49.882;8.666;2023-03-30T00:39:39;99504.19;;;14.18;53.45
12963;BME280;6546;49.882;8.666;2023-03-30T00:42:06;99499.56;;;14.13;53.56
12963;BME280;6546;49.882;8.666;2023-03-30T00:45:11;99498.97;;;14.11;53.84
12963;BME280;6546;49.882;8.666;2023-03-30T00:47:42;99485.56;;;14.08;54.01
12963;BME280;6546;49.882;8.666;2023-03-30T00:50:11;99482.72;;;14.03;54.17
12963;BME280;6546;49.882;8.666;2023-03-30T00:52:39;99485.34;;;14.03;54.03
12963;BME280;6546;49.882;8.666;2023-03-30T00:55:09;99480.13;;;13.96;54.47
12963;BME280;6546;49.882;8.666;2023-03-30T00:57:38;99476.34;;;13.99;54.05
12963;BME280;6546;49.882;8.666;2023-03-30T01:00:08;99467.09;;;14.03;54.02
12963;BME280;6546;49.882;8.666;2023-03-30T01:02:44;99472.72;;;14.00;54.31
12963;BME280;6546;49.882;8.666;2023-03-30T01:05:24;99467.72;;;13.98;54.33
12963;BME280;6546;49.882;8.666;2023-03-30T01:07:51;99477.91;;;13.93;54.36
12963;BME280;6546;49.882;8.666;2023-03-30T01:10:21;99471.50;;;13.96;54.36
12963;BME280;6546;49.882;8.666;2023-03-30T01:12:48;99467.50;;;14.00;54.81
12963;BME280;6546;49.882;8.666;2023-03-30T01:15:20;99465.69;;;13.94;55.06
12963;BME280;6546;49.882;8.666;2023-03-30T01:18:04;99474.31;;;13.88;54.86
12963;BME280;6546;49.882;8.666;2023-03-30T01:21:06;99465.28;;;13.84;55.34
12963;BME280;6546;49.882;8.666;2023-03-30T01:24:11;99467.88;;;13.84;55.30
12963;BME280;6546;49.882;8.666;2023-03-30T01:26:50;99469.50;;;13.85;55.37
12963;BME280;6546;49.882;8.666;2023-03-30T01:29:32;99466.31;;;13.83;55.48
12963;BME280;6546;49.882;8.666;2023-03-30T01:32:39;99468.09;;;13.82;55.91
12963;BME280;6546;49.882;8.666;2023-03-30T01:35:34;99466.66;;;13.80;55.96
12963;BME280;6546;49.882;8.666;2023-03-30T01:41:29;99479.09;;;13.78;56.14
12963;BME280;6546;49.882;8.666;2023-03-30T01:44:01;99473.88;;;13.78;56.07
12963;BME280;6546;49.882;8.666;2023-03-30T01:46:29;99471.69;;;13.81;56.20
12963;BME280;6546;49.882;8.666;2023-03-30T01:49:10;99463.91;;;13.88;56.22
12963;BME280;6546;49.882;8.666;2023-03-30T01:51:44;99464.69;;;13.88;55.98
12963;BME280;6546;49.882;8.666;2023-03-30T01:54:19;99463.50;;;13.91;55.94
12963;BME280;6546;49.882;8.666;2023-03-30T01:56:53;99473.31;;;13.89;56.06
12963;BME280;6546;49.882;8.666;2023-03-30T01:59:24;99472.28;;;13.90;56.05
12963;BME280;6546;49.882;8.666;2023-03-30T02:01:55;99478.72;;;13.94;56.01
12963;BME280;6546;49.882;8.666;2023-03-30T02:04:31;99491.94;;;13.92;56.11
12963;BME280;6546;49.882;8.666;2023-03-30T02:07:03;99476.72;;;13.89;56.24
12963;BME280;6546;49.882;8.666;2023-03-30T02:09:33;99479.09;;;13.91;56.59
12963;BME280;6546;49.882;8.666;2023-03-30T02:12:04;99469.91;;;13.88;56.31
12963;BME280;6546;49.882;8.666;2023-03-30T02:14:38;99475.91;;;13.89;56.78
12963;BME280;6546;49.882;8.666;2023-03-30T02:17:09;99477.91;;;13.87;57.15
12963;BME280;6546;49.882;8.666;2023-03-30T02:19:38;99475.50;;;13.79;57.40
12963;BME280;6546;49.882;8.666;2023-03-30T02:22:06;99481.09;;;13.82;57.43
12963;BME280;6546;49.882;8.666;2023-03-30T02:24:34;99505.34;;;13.83;58.17
12963;BME280;6546;49.882;8.666;2023-03-30T02:27:03;99490.31;;;13.85;58.26
12963;BME280;6546;49.882;8.666;2023-03-30T02:29:30;99492.91;;;13.85;58.87
12963;BME280;6546;49.882;8.666;2023-03-30T02:32:00;99485.91;;;13.85;57.99
12963;BME280;6546;49.882;8.666;2023-03-30T02:34:48;99476.31;;;13.86;58.11
12963;BME280;6546;49.882;8.666;2023-03-30T02:37:27;99467.50;;;13.87;58.11
12963;BME280;6546;49.882;8.666;2023-03-30T02:40:07;99465.28;;;13.90;58.12
12963;BME280;6546;49.882;8.666;2023-03-30T02:45:50;99445.69;;;13.88;57.74
12963;BME280;6546;49.882;8.666;2023-03-30T02:48:28;99448.69;;;13.85;57.54
12963;BME280;6546;49.882;8.666;2023-03-30T02:51:04;99455.09;;;13.82;57.35
12963;BME280;6546;49.882;8.666;2023-03-30T02:53:40;99456.69;;;13.90;57.48
12963;BME280;6546;49.882;8.666;2023-03-30T02:56:13;99465.50;;;13.89;57.46
12963;BME280;6546;49.882;8.666;2023-03-30T02:58:46;99473.09;;;13.90;57.27
12963;BME280;6546;49.882;8.666;2023-03-30T03:01:18;99481.50;;;13.86;57.67
12963;BME280;6546;49.882;8.666;2023-03-30T03:03:53;99495.94;;;13.88;58.11
12963;BME280;6546;49.882;8.666;2023-03-30T03:06:23;99491.31;;;13.97;57.88
12963;BME280;6546;49.882;8.666;2023-03-30T03:08:52;99495.53;;;13.98;57.70
12963;BME280;6546;49.882;8.666;2023-03-30T03:11:19;99487.13;;;13.96;57.83
12963;BME280;6546;49.882;8.666;2023-03-30T03:13:45;99485.31;;;13.96;57.87
12963;BME280;6546;49.882;8.666;2023-03-30T03:16:12;99483.53;;;14.03;57.34
12963;BME280;6546;49.882;8.666;2023-03-30T03:18:41;99496.16;;;14.06;57.16
12963;BME280;6546;49.882;8.666;2023-03-30T03:21:09;99511.19;;;14.11;57.40
12963;BME280;6546;49.882;8.666;2023-03-30T03:23:37;99523.19;;;14.12;57.55
12963;BME280;6546;49.882;8.666;2023-03-30T03:26:04;99530.00;;;14.13;57.31
12963;BME280;6546;49.882;8.666;2023-03-30T03:28:32;99529.00;;;14.14;57.32
12963;BME280;6546;49.882;8.666;2023-03-30T03:30:59;99512.78;;;14.12;57.54
12963;BME280;6546;49.882;8.666;2023-03-30T03:33:27;99522.00;;;14.08;58.45
12963;BME280;6546;49.882;8.666;2023-03-30T03:35:57;99518.56;;;14.01;59.65
12963;BME280;6546;49.882;8.666;2023-03-30T03:38:25;99507.56;;;13.92;60.89
12963;BME280;6546;49.882;8.666;2023-03-30T03:40:54;99506.94;;;13.90;62.29
12963;BME280;6546;49.882;8.666;2023-03-30T03:43:21;99487.13;;;13.89;62.52
12963;BME280;6546;49.882;8.666;2023-03-30T03:45:49;99459.09;;;13.85;62.69
12963;BME280;6546;49.882;8.666;2023-03-30T03:48:18;99450.06;;;13.81;62.77
12963;BME280;6546;49.882;8.666;2023-03-30T03:50:48;99431.84;;;13.81;63.41
12963;BME280;6546;49.882;8.666;2023-03-30T03:53:17;99428.03;;;13.77;63.02
12963;BME280;6546;49.882;8.666;2023-03-30T03:55:44;99422.44;;;13.73;63.29
12963;BME280;6546;49.882;8.666;2023-03-30T03:58:11;99415.81;;;13.71;62.99
12963;BME280;6546;49.882;8.666;2023-03-30T04:00:38;99402.22;;;13.68;62.92
12963;BME280;6546;49.882;8.666;2023-03-30T04:03:05;99387.19;;;13.71;62.95
12963;BME280;6546;49.882;8.666;2023-03-30T04:05:33;99376.00;;;13.70;62.65
12963;BME280;6546;49.882;8.666;2023-03-30T04:08:00;99370.19;;;13.75;62.54
12963;BME280;6546;49.882;8.666;2023-03-30T04:10:28;99363.78;;;13.71;62.72
12963;BME280;6546;49.882;8.666;2023-03-30T04:12:55;99338.78;;;13.63;62.55
12963;BME280;6546;49.882;8.666;2023-03-30T04:15:24;99350.38;;;13.74;62.57
12963;BME280;6546;49.882;8.666;2023-03-30T04:17:50;99331.56;;;13.72;62.33
12963;BME280;6546;49.882;8.666;2023-03-30T04:20:22;99337.19;;;13.75;62.61
12963;BME280;6546;49.882;8.666;2023-03-30T04:22:50;99332.16;;;13.74;62.45
12963;BME280;6546;49.882;8.666;2023-03-30T04:25:18;99332.56;;;13.77;62.36
12963;BME280;6546;49.882;8.666;2023-03-30T04:27:47;99328.56;;;13.75;62.47
12963;BME280;6546;49.882;8.666;2023-03-30T04:30:16;99324.56;;;13.72;62.34
12963;BME280;6546;49.882;8.666;2023-03-30T04:32:43;99321.75;;;13.74;62.41
12963;BME280;6546;49.882;8.666;2023-03-30T04:35:12;99318.56;;;13.72;62.59
12963;BME280;6546;49.882;8.666;2023-03-30T04:37:39;99310.75;;;13.72;62.66
12963;BME280;6546;49.882;8.666;2023-03-30T04:40:07;99313.56;;;13.70;62.75
12963;BME280;6546;49.882;8.666;2023-03-30T04:42:34;99310.19;;;13.70;62.59
12963;BME280;6546;49.882;8.666;2023-03-30T04:45:04;99323.59;;;13.66;62.92
12963;BME280;6546;49.882;8.666;2023-03-30T04:47:31;99324.38;;;13.67;62.98
12963;BME280;6546;49.882;8.666;2023-03-30T04:49:58;99342.56;;;13.67;63.02
12963;BME280;6546;49.882;8.666;2023-03-30T04:52:25;99356.59;;;13.73;63.00
12963;BME280;6546;49.882;8.666;2023-03-30T04:54:52;99379.00;;;13.74;62.99
12963;BME280;6546;49.882;8.666;2023-03-30T04:57:19;99407.44;;;13.75;63.43
12963;BME280;6546;49.882;8.666;2023-03-30T04:59:46;99420.03;;;13.78;63.74
12963;BME280;6546;49.882;8.666;2023-03-30T05:02:14;99442.66;;;13.78;64.12
12963;BME280;6546;49.882;8.666;2023-03-30T05:04:40;99435.06;;;13.76;66.11
12963;BME280;6546;49.882;8.666;2023-03-30T05:07:08;99434.25;;;13.76;67.30
12963;BME280;6546;49.882;8.666;2023-03-30T05:09:35;99408.63;;;13.59;68.84
12963;BME280;6546;49.882;8.666;2023-03-30T05:12:01;99408.00;;;13.64;69.88
12963;BME280;6546;49.882;8.666;2023-03-30T05:14:29;99411.63;;;13.56;70.65
12963;BME280;6546;49.882;8.666;2023-03-30T05:16:55;99401.38;;;13.48;71.67
12963;BME280;6546;49.882;8.666;2023-03-30T05:19:24;99426.56;;;13.41;72.53
12963;BME280;6546;49.882;8.666;2023-03-30T05:21:51;99432.16;;;13.38;73.67
12963;BME280;6546;49.882;8.666;2023-03-30T05:24:17;99428.53;;;13.33;74.54
12963;BME280;6546;49.882;8.666;2023-03-30T05:26:44;99414.31;;;13.29;74.89
12963;BME280;6546;49.882;8.666;2023-03-30T05:29:10;99389.53;;;13.26;75.23
12963;BME280;6546;49.882;8.666;2023-03-30T05:31:37;99384.91;;;13.22;75.49
12963;BME280;6546;49.882;8.666;2023-03-30T05:34:04;99385.31;;;13.25;75.27
12963;BME280;6546;49.882;8.666;2023-03-30T05:36:33;99384.31;;;13.20;75.50
12963;BME280;6546;49.882;8.666;2023-03-30T05:39:00;99404.09;;;13.21;75.59
12963;BME280;6546;49.882;8.666;2023-03-30T05:41:29;99417.50;;;13.18;75.74
12963;BME280;6546;49.882;8.666;2023-03-30T05:43:56;99425.88;;;13.13;76.13
12963;BME280;6546;49.882;8.666;2023-03-30T05:46:23;99433.28;;;13.16;76.77
12963;BME280;6546;49.882;8.666;2023-03-30T05:48:50;99453.22;;;13.09;77.01
12963;BME280;6546;49.882;8.666;2023-03-30T05:51:17;99453.22;;;13.09;77.18
12963;BME280;6546;49.882;8.666;2023-03-30T05:53:45;99459.66;;;13.13;77.29
12963;BME280;6546;49.882;8.666;2023-03-30T05:56:12;99459.66;;;13.13;77.54
12963;BME280;6546;49.882;8.666;2023-03-30T05:58:39;99466.59;;;13.06;77.94
12963;BME280;6546;49.882;8.666;2023-03-30T06:01:06;99472.94;;;12.97;78.44
12963;BME280;6546;49.882;8.666;2023-03-30T06:03:33;99477.53;;;12.95;78.76
12963;BME280;6546;49.882;8.666;2023-03-30T06:06:00;99479.94;;;12.96;79.16
12963;BME280;6546;49.882;8.666;2023-03-30T06:08:27;99477.53;;;12.95;79.69
12963;BME280;6546;49.882;8.666;2023-03-30T06:10:55;99484.91;;;12.91;79.80
12963;BME280;6546;49.882;8.666;2023-03-30T06:13:22;99468.13;;;12.94;80.01
12963;BME280;6546;49.882;8.666;2023-03-30T06:15:49;99466.34;;;12.94;79.74
12963;BME280;6546;49.882;8.666;2023-03-30T06:18:16;99454.28;;;12.87;80.33
12963;BME280;6546;49.882;8.666;2023-03-30T06:20:45;99444.88;;;12.79;80.84
12963;BME280;6546;49.882;8.666;2023-03-30T06:23:11;99432.28;;;12.76;80.96
12963;BME280;6546;49.882;8.666;2023-03-30T06:25:38;99414.41;;;12.67;81.27
12963;BME280;6546;49.882;8.666;2023-03-30T06:28:07;99459.78;;;12.71;81.49
12963;BME280;6546;49.882;8.666;2023-03-30T06:30:33;99474.41;;;12.72;81.83
12963;BME280;6546;49.882;8.666;2023-03-30T06:33:00;99478.59;;;12.73;81.76
12963;BME280;6546;49.882;8.666;2023-03-30T06:35:26;99473.03;;;12.76;81.61
12963;BME280;6546;49.882;8.666;2023-03-30T06:37:53;99473.78;;;12.70;81.77
12963;BME280;6546;49.882;8.666;2023-03-30T06:40:20;99450.22;;;12.71;81.83
12963;BME280;6546;49.882;8.666;2023-03-30T06:42:47;99443.00;;;12.73;81.88
12963;BME280;6546;49.882;8.666;2023-03-30T06:45:15;99437.84;;;12.80;81.66
12963;BME280;6546;49.882;8.666;2023-03-30T06:47:42;99447.09;;;12.82;81.33
12963;BME280;6546;49.882;8.666;2023-03-30T06:50:09;99432.88;;;12.78;81.47
12963;BME280;6546;49.882;8.666;2023-03-30T06:52:36;99422.66;;;12.77;81.23
12963;BME280;6546;49.882;8.666;2023-03-30T06:55:04;99426.47;;;12.81;81.51
12963;BME280;6546;49.882;8.666;2023-03-30T06:57:30;99433.44;;;12.74;81.80
12963;BME280;6546;49.882;8.666;2023-03-30T06:59:57;99430.19;;;12.65;81.93
12963;BME280;6546;49.882;8.666;2023-03-30T07:02:25;99438.22;;;12.70;81.93
12963;BME280;6546;49.882;8.666;2023-03-30T07:04:52;99459.41;;;12.74;81.80
12963;BME280;6546;49.882;8.666;2023-03-30T07:07:18;99453.78;;;12.70;81.75
12963;BME280;6546;49.882;8.666;2023-03-30T07:09:45;99453.00;;;12.70;81.70
12963;BME280;6546;49.882;8.666;2023-03-30T07:12:11;99453.78;;;12.70;81.73
12963;BME280;6546;49.882;8.666;2023-03-30T07:14:38;99437.78;;;12.67;81.66
12963;BME280;6546;49.882;8.666;2023-03-30T07:17:05;99427.38;;;12.67;81.36
12963;BME280;6546;49.882;8.666;2023-03-30T07:19:33;99424.63;;;12.68;81.63
12963;BME280;6546;49.882;8.666;2023-03-30T07:22:00;99423.00;;;12.67;81.46
12963;BME280;6546;49.882;8.666;2023-03-30T07:24:28;99403.03;;;12.68;81.14
12963;BME280;6546;49.882;8.666;2023-03-30T07:26:55;99393.06;;;12.71;81.00
12963;BME280;6546;49.882;8.666;2023-03-30T07:29:22;99375.09;;;12.70;80.90
12963;BME280;6546;49.882;8.666;2023-03-30T07:31:49;99351.09;;;12.68;81.13
12963;BME280;6546;49.882;8.666;2023-03-30T07:34:16;99336.72;;;12.72;81.30
12963;BME280;6546;49.882;8.666;2023-03-30T07:36:44;99328.31;;;12.63;81.02
12963;BME280;6546;49.882;8.666;2023-03-30T07:39:11;99349.69;;;12.65;80.88
12963;BME280;6546;49.882;8.666;2023-03-30T07:41:38;99382.25;;;12.68;80.51
12963;BME280;6546;49.882;8.666;2023-03-30T07:44:05;99400.25;;;12.69;80.27
12963;BME280;6546;49.882;8.666;2023-03-30T07:46:32;99412.00;;;12.65;80.48
12963;BME280;6546;49.882;8.666;2023-03-30T07:48:59;99439.00;;;12.71;80.34
12963;BME280;6546;49.882;8.666;2023-03-30T07:51:26;99432.59;;;12.67;80.29
12963;BME280;6546;49.882;8.666;2023-03-30T07:53:55;99444.41;;;12.69;80.33
12963;BME280;6546;49.882;8.666;2023-03-30T07:56:24;99443.41;;;12.70;80.08
12963;BME280;6546;49.882;8.666;2023-03-30T07:58:51;99434.63;;;12.71;80.31
12963;BME280;6546;49.882;8.666;2023-03-30T08:01:18;99419.84;;;12.72;80.06
12963;BME280;6546;49.882;8.666;2023-03-30T08:03:45;99426.66;;;12.73;79.91
12963;BME280;6546;49.882;8.666;2023-03-30T08:06:12;99423.44;;;12.71;79.90
12963;BME280;6546;49.882;8.666;2023-03-30T08:08:39;99404.84;;;12.74;79.98
12963;BME280;6546;49.882;8.666;2023-03-30T08:11:09;99420.28;;;12.75;79.66
12963;BME280;6546;49.882;8.666;2023-03-30T08:13:36;99437.59;;;12.68;79.75
12963;BME280;6546;49.882;8.666;2023-03-30T08:16:03;99472.59;;;12.72;79.95
12963;BME280;6546;49.882;8.666;2023-03-30T08:18:30;99474.56;;;12.70;79.89
12963;BME280;6546;49.882;8.666;2023-03-30T08:20:57;99467.97;;;12.68;80.12
12963;BME280;6546;49.882;8.666;2023-03-30T08:23:23;99466.41;;;12.73;79.95
12963;BME280;6546;49.882;8.666;2023-03-30T08:25:54;99468.22;;;12.73;79.99
12963;BME280;6546;49.882;8.666;2023-03-30T08:28:23;99469.75;;;12.67;80.09
12963;BME280;6546;49.882;8.666;2023-03-30T08:30:50;99481.03;;;12.81;79.94
12963;BME280;6546;49.882;8.666;2023-03-30T08:33:17;99495.81;;;12.80;80.07
12963;BME280;6546;49.882;8.666;2023-03-30T08:35:45;99488.06;;;12.87;79.75
12963;BME280;6546;49.882;8.666;2023-03-30T08:38:12;99486.69;;;12.91;79.66
12963;BME280;6546;49.882;8.666;2023-03-30T08:40:44;99486.75;;;12.97;79.66
12963;BME280;6546;49.882;8.666;2023-03-30T08:43:27;99493.84;;;13.10;79.46
12963;BME280;6546;49.882;8.666;2023-03-30T08:45:58;99488.50;;;13.18;79.22
12963;BME280;6546;49.882;8.666;2023-03-30T08:48:26;99480.09;;;13.23;78.69
12963;BME280;6546;49.882;8.666;2023-03-30T08:50:56;99484.91;;;13.26;78.62
12963;BME280;6546;49.882;8.666;2023-03-30T08:53:23;99476.53;;;13.30;78.70
12963;BME280;6546;49.882;8.666;2023-03-30T08:55:53;99469.34;;;13.32;78.85
12963;BME280;6546;49.882;8.666;2023-03-30T08:58:28;99488.16;;;13.34;78.95
12963;BME280;6546;49.882;8.666;2023-03-30T09:01:07;99489.56;;;13.37;78.79
12963;BME280;6546;49.882;8.666;2023-03-30T09:03:39;99491.38;;;13.36;78.60
12963;BME280;6546;49.882;8.666;2023-03-30T09:06:10;99492.16;;;13.37;78.52
12963;BME280;6546;49.882;8.666;2023-03-30T09:08:39;99490.53;;;13.29;78.25
12963;BME280;6546;49.882;8.666;2023-03-30T09:11:10;99480.50;;;13.26;78.46
12963;BME280;6546;49.882;8.666;2023-03-30T09:13:42;99491.34;;;13.30;78.25
12963;BME280;6546;49.882;8.666;2023-03-30T09:16:14;99485.72;;;13.26;78.38
12963;BME280;6546;49.882;8.666;2023-03-30T09:18:45;99478.13;;;13.31;78.26
12963;BME280;6546;49.882;8.666;2023-03-30T09:21:13;99484.94;;;13.32;78.52
12963;BME280;6546;49.882;8.666;2023-03-30T09:23:40;99473.75;;;13.38;78.64
12963;BME280;6546;49.882;8.666;2023-03-30T09:26:15;99481.75;;;13.37;78.77
12963;BME280;6546;49.882;8.666;2023-03-30T09:28:50;99482.97;;;13.34;78.64
12963;BME280;6546;49.882;8.666;2023-03-30T09:31:23;99482.97;;;13.34;78.84
12963;BME280;6546;49.882;8.666;2023-03-30T09:33:56;99493.19;;;13.42;78.75
12963;BME280;6546;49.882;8.666;2023-03-30T09:36:26;99495.78;;;13.42;78.81
12963;BME280;6546;49.882;8.666;2023-03-30T09:38:54;99498.97;;;13.44;78.73
12963;BME280;6546;49.882;8.666;2023-03-30T09:41:30;99490.56;;;13.36;78.94
12963;BME280;6546;49.882;8.666;2023-03-30T09:44:02;99487.38;;;13.40;78.90
12963;BME280;6546;49.882;8.666;2023-03-30T09:46:28;99484.59;;;13.48;78.87
12963;BME280;6546;49.882;8.666;2023-03-30T09:49:10;99476.59;;;13.43;78.69
12963;BME280;6546;49.882;8.666;2023-03-30T09:51:52;99483.00;;;13.41;78.58
12963;BME280;6546;49.882;8.666;2023-03-30T09:54:20;99479.97;;;13.37;78.84
12963;BME280;6546;49.882;8.666;2023-03-30T09:56:47;99483.75;;;13.41;78.92
12963;BME280;6546;49.882;8.666;2023-03-30T09:59:27;99478.59;;;13.48;78.27
12963;BME280;6546;49.882;8.666;2023-03-30T10:02:08;99475.81;;;13.49;78.34
12963;BME280;6546;49.882;8.666;2023-03-30T10:04:54;99468.59;;;13.51;78.42
12963;BME280;6546;49.882;8.666;2023-03-30T10:07:23;99462.22;;;13.60;78.03
12963;BME280;6546;49.882;8.666;2023-03-30T10:09:51;99475.47;;;13.65;77.19
12963;BME280;6546;49.882;8.666;2023-03-30T10:12:18;99474.66;;;13.65;76.79
12963;BME280;6546;49.882;8.666;2023-03-30T10:14:52;99472.84;;;13.65;76.92
12963;BME280;6546;49.882;8.666;2023-03-30T10:17:21;99473.69;;;13.73;76.25
12963;BME280;6546;49.882;8.666;2023-03-30T10:19:51;99481.50;;;13.79;75.61
12963;BME280;6546;49.882;8.666;2023-03-30T10:22:19;99479.91;;;13.85;75.24
12963;BME280;6546;49.882;8.666;2023-03-30T10:24:48;99486.31;;;13.89;74.14
12963;BME280;6546;49.882;8.666;2023-03-30T10:27:16;99479.09;;;13.91;73.99
12963;BME280;6546;49.882;8.666;2023-03-30T10:29:48;99481.91;;;13.96;72.79
12963;BME280;6546;49.882;8.666;2023-03-30T10:32:18;99480.13;;;13.96;73.00
12963;BME280;6546;49.882;8.666;2023-03-30T10:34:47;99482.94;;;14.01;72.49
12963;BME280;6546;49.882;8.666;2023-03-30T10:37:19;99488.34;;;14.06;70.48
12963;BME280;6546;49.882;8.666;2023-03-30T10:39:47;99479.94;;;14.11;69.64
12963;BME280;6546;49.882;8.666;2023-03-30T10:42:16;99489.75;;;14.22;68.94
12963;BME280;6546;49.882;8.666;2023-03-30T10:44:48;99486.34;;;14.28;68.86
12963;BME280;6546;49.882;8.666;2023-03-30T10:47:31;99488.97;;;14.35;69.06
12963;BME280;6546;49.882;8.666;2023-03-30T10:50:08;99481.78;;;14.37;68.15
12963;BME280;6546;49.882;8.666;2023-03-30T10:52:43;99495.63;;;14.44;67.83
12963;BME280;6546;49.882;8.666;2023-03-30T10:55:20;99482.59;;;14.50;67.03
12963;BME280;6546;49.882;8.666;2023-03-30T10:57:53;99495.00;;;14.61;67.44
12963;BME280;6546;49.882;8.666;2023-03-30T11:00:40;99490.19;;;14.58;68.12
12963;BME280;6546;49.882;8.666;2023-03-30T11:03:16;99484.78;;;14.60;67.88
12963;BME280;6546;49.882;8.666;2023-03-30T11:05:48;99497.19;;;14.58;67.71
12963;BME280;6546;49.882;8.666;2023-03-30T11:08:18;99480.00;;;14.50;67.02
12963;BME280;6546;49.882;8.666;2023-03-30T11:10:47;99483.59;;;14.49;67.48
12963;BME280;6546;49.882;8.666;2023-03-30T11:13:16;99477.97;;;14.52;67.96
12963;BME280;6546;49.882;8.666;2023-03-30T11:15:50;99479.97;;;14.63;67.56
12963;BME280;6546;49.882;8.666;2023-03-30T11:18:20;99478.56;;;14.67;67.52
12963;BME280;6546;49.882;8.666;2023-03-30T11:20:53;99468.34;;;14.66;66.77
12963;BME280;6546;49.882;8.666;2023-03-30T11:23:25;99477.94;;;14.72;66.93
12963;BME280;6546;49.882;8.666;2023-03-30T11:25:59;99482.53;;;14.77;66.69
12963;BME280;6546;49.882;8.666;2023-03-30T11:28:45;99483.97;;;14.73;66.48
12963;BME280;6546;49.882;8.666;2023-03-30T11:31:24;99491.19;;;14.64;67.59
12963;BME280;6546;49.882;8.666;2023-03-30T11:33:57;99481.16;;;14.54;69.02
12963;BME280;6546;49.882;8.666;2023-03-30T11:36:31;99477.97;;;14.39;69.62
12963;BME280;6546;49.882;8.666;2023-03-30T11:39:01;99482.19;;;14.34;70.87
12963;BME280;6546;49.882;8.666;2023-03-30T11:41:34;99492.75;;;14.32;69.94
12963;BME280;6546;49.882;8.666;2023-03-30T11:44:02;99473.16;;;14.36;69.87
12963;BME280;6546;49.882;8.666;2023-03-30T11:46:37;99473.16;;;14.49;70.89
12963;BME280;6546;49.882;8.666;2023-03-30T11:49:21;99471.75;;;14.60;70.74
12963;BME280;6546;49.882;8.666;2023-03-30T11:51:59;99466.31;;;14.75;69.95
12963;BME280;6546;49.882;8.666;2023-03-30T11:55:04;99459.25;;;15.01;67.62
12963;BME280;6546;49.882;8.666;2023-03-30T11:57:37;99457.34;;;15.28;67.06
12963;BME280;6546;49.882;8.666;2023-03-30T12:00:23;99465.28;;;15.46;65.75
12963;BME280;6546;49.882;8.666;2023-03-30T12:02:58;99463.63;;;15.58;64.94
12963;BME280;6546;49.882;8.666;2023-03-30T12:05:29;99479.06;;;15.66;64.36
12963;BME280;6546;49.882;8.666;2023-03-30T12:08:04;99473.59;;;15.74;62.49
12963;BME280;6546;49.882;8.666;2023-03-30T12:10:37;99453.72;;;15.73;61.60
12963;BME280;6546;49.882;8.666;2023-03-30T12:13:06;99463.53;;;15.78;63.03
12963;BME280;6546;49.882;8.666;2023-03-30T12:15:43;99461.50;;;15.80;62.41
12963;BME280;6546;49.882;8.666;2023-03-30T12:18:22;99462.69;;;15.84;62.69
12963;BME280;6546;49.882;8.666;2023-03-30T12:20:54;99444.75;;;15.94;61.64
12963;BME280;6546;49.882;8.666;2023-03-30T12:23:34;99439.53;;;15.94;61.48
12963;BME280;6546;49.882;8.666;2023-03-30T12:26:09;99436.53;;;15.91;61.28
12963;BME280;6546;49.882;8.666;2023-03-30T12:28:45;99432.38;;;15.83;61.07
12963;BME280;6546;49.882;8.666;2023-03-30T12:31:12;99428.41;;;15.74;60.30
12963;BME280;6546;49.882;8.666;2023-03-30T12:33:46;99417.13;;;15.80;60.47
12963;BME280;6546;49.882;8.666;2023-03-30T12:36:29;99427.91;;;15.90;58.78
12963;BME280;6546;49.882;8.666;2023-03-30T12:38:59;99421.88;;;15.90;59.93
12963;BME280;6546;49.882;8.666;2023-03-30T12:41:37;99409.94;;;16.00;60.54
12963;BME280;6546;49.882;8.666;2023-03-30T12:44:28;99409.47;;;16.10;60.49
12963;BME280;6546;49.882;8.666;2023-03-30T12:47:08;99398.41;;;16.14;57.88
12963;BME280;6546;49.882;8.666;2023-03-30T12:49:52;99397.72;;;16.19;57.52
12963;BME280;6546;49.882;8.666;2023-03-30T12:52:27;99383.59;;;16.26;59.35
12963;BME280;6546;49.882;8.666;2023-03-30T12:55:09;99373.03;;;16.40;56.93
12963;BME280;6546;49.882;8.666;2023-03-30T12:57:48;99380.66;;;16.41;58.49
12963;BME280;6546;49.882;8.666;2023-03-30T13:00:41;99379.50;;;16.37;56.64
12963;BME280;6546;49.882;8.666;2023-03-30T13:03:24;99377.44;;;16.39;56.18
12963;BME280;6546;49.882;8.666;2023-03-30T13:05:57;99371.72;;;16.49;55.92
12963;BME280;6546;49.882;8.666;2023-03-30T13:08:30;99367.84;;;16.58;55.11
12963;BME280;6546;49.882;8.666;2023-03-30T13:11:11;99381.38;;;16.48;54.20
12963;BME280;6546;49.882;8.666;2023-03-30T13:13:48;99372.84;;;16.41;53.51
12963;BME280;6546;49.882;8.666;2023-03-30T13:16:46;99386.78;;;16.28;53.08
12963;BME280;6546;49.882;8.666;2023-03-30T13:19:20;99403.81;;;16.13;54.61
12963;BME280;6546;49.882;8.666;2023-03-30T13:21:54;99412.50;;;16.07;55.67
12963;BME280;6546;49.882;8.666;2023-03-30T13:24:25;99401.59;;;15.92;57.25
12963;BME280;6546;49.882;8.666;2023-03-30T13:26:53;99417.50;;;15.84;58.69
12963;BME280;6546;49.882;8.666;2023-03-30T13:29:22;99405.34;;;15.71;60.26
12963;BME280;6546;49.882;8.666;2023-03-30T13:32:03;99413.50;;;15.50;61.81
12963;BME280;6546;49.882;8.666;2023-03-30T13:34:45;99418.41;;;15.27;63.38
12963;BME280;6546;49.882;8.666;2023-03-30T13:37:21;99417.66;;;15.13;66.89